Detall de PIREP

Printer-friendly versionPDF version

[2012/12/04 11:14:00]
Flight IATA:CT0001
Pilot Number:042
Company ICAO:CAT
Aircraft Type:F70/A
PAX:18
Aircraft Registration:PFJ
Departing Airport: LEAL
Destination Airport: LEMH
Alternate Airport:LEPA
Online: VATSIM
Route:MITOS B46 PTC
Flight Level:F220
No Slew and time accel
No pause
Crash detect
Detect pilot in Cockpit between each 30 and 45 minutes
11:14 Zero fuel Weight: 72667 Lbs, Fuel Weight: 22689 Lbs
11:14 VATSIM:LEAL 041100Z 28011KT 260V320 CAVOK 14/03 Q1021 NOSIG
11:14 VATSIM:LEMH 041100Z 27013G23KT 230V300 9999 FEW018 15/08 Q1015
11:14 VOICE CATALONIAN
11:21 Parking Brakes off
11:25 Take-off
11:25 Take off Weight: 94876 Lbs
11:25 Wind: 294º @ 011 Knots Heading: 280º
11:25 POS N38º 16´ 55´´ W000º 33´ 26´´
11:25 Gear Up: 161 Knots
11:25 Flaps:2 at 161 Knots
11:25 Flaps:1 at 166 Knots
11:25 Flaps:0 at 174 Knots
11:36 TOC
11:36 Fuel Weight: 20700 Lb
11:40 Wind:288º@059 Knots Heading: 062º Ground Speed: 464 Knots Altitude 22181 ft
11:55 Wind:291º@044 Knots Heading: 066º Ground Speed: 459 Knots Altitude 22080 ft
11:56 TOD
11:56 Fuel Weight: 18697 Lb
12:07 Flaps:1 at 186 Knots
12:08 Flaps:2 at 157 Knots
12:08 Flaps:3 at 161 Knots
12:09 Flaps:4 at 153 Knots
12:09 Gear Down: 153 Knots
12:10 Wind:260º@019 Knots Heading: 200º Ground Speed: 145 Knots Altitude 2562 ft
12:13 TouchDown:Rate -381 ft/min Speed: 108 Knots
12:13 Flaps:3 at 59 Knots
12:13 Flaps:0 at 57 Knots
12:13 VATSIM:LEMH 041200Z 27010KT 230V300 9999 FEW018 SCT035 15/09 Q1014
12:13 Land
12:13 Wind:262º@017 Knots
12:13 Heading: 182º
12:13 Flight Duration: 00:48
12:13 Landing Weight: 90390 Lbs
12:13 POS N39º 51´ 39´´ E004º 13´ 05´´
12:15 Parking brakes on
12:15 Block to Block Duration: 00:54
12:15 Final Fuel: 17524 Lbls
12:15 Spent Fuel: 5165 Lbls
12:15 Flight Length: 280 NM
12:15 TOD Land Length: 72 NM

Exportar CSV

Powered by Drupal - Modified by Danger4k